Stations météo

réclame
Mon MeteoGroup
Zugspitze, Allemagne (10961): Température de l'air & dewpoint: 13.03.2019 03:00:00 - 19.03.2019 03:00:00 (CET)Zugspitze, Allemagne (10961): Vitesse du vent & gusts: 13.03.2019 03:00:00 - 19.03.2019 03:00:00 (CET)Zugspitze, Allemagne (10961): Direction du vent: 13.03.2019 03:00:00 - 19.03.2019 03:00:00 (CET)Zugspitze, Allemagne (10961): visibility: 13.03.2019 03:00:00 - 19.03.2019 03:00:00 (CET)Zugspitze, Allemagne (10961): Ensoleillement: 13.03.2019 03:00:00 - 19.03.2019 03:00:00 (CET)
Date & Time tt [°C] td [°C] ff [km/h] ff [knt] fx [km/h] fx [knt] dd vv [km] sd [min]
19.03.2019 03:00:00 -15,2 -16,5 7 4 18 10 NW 0,2 0
19.03.2019 02:00:00 -14,6 -16,0 5 3 16 9 NNW 0,1 0
19.03.2019 01:00:00 -14,6 -15,8 8 4 17 9 NNW 0,1 0
19.03.2019 00:00:00 -14,8 -16,2 8 4 23 12 NNW 0,1 0
18.03.2019 23:00:00 -14,8 -16,3 11 6 20 11 NNW 0,1 0
18.03.2019 22:00:00 -15,0 -16,5 15 8 27 15 NNW 0,1 0
18.03.2019 21:00:00 -15,2 -16,7 10 5 20 11 NNW 0,1 0
18.03.2019 20:00:00 -15,0 -16,4 7 4 26 14 N 0,1 0
18.03.2019 19:00:00 -14,9 -16,4 16 8 44 24 NNW 0,1 0
18.03.2019 18:00:00 -14,9 -16,6 16 8 32 17 NNW 0,1 0
18.03.2019 17:00:00 -14,9 -16,7 17 9 31 17 NNW - 4
18.03.2019 16:00:00 -15,0 -16,1 15 8 35 19 NNW - 0
18.03.2019 15:00:00 -15,3 -17,0 22 12 35 19 NNW - 6
18.03.2019 14:00:00 -15,1 -16,9 17 9 35 19 NNW - 19
18.03.2019 13:00:00 -14,3 -15,7 11 6 41 22 NNW - 9
18.03.2019 12:00:00 -14,6 -16,5 17 9 45 24 NNW - 3
18.03.2019 11:00:00 -14,0 -15,8 21 12 41 22 NW - 0
18.03.2019 10:00:00 -14,5 -15,8 13 7 36 19 W 0,4 0
18.03.2019 09:00:00 -15,0 -16,6 22 12 44 24 W 0,2 0
18.03.2019 08:00:00 -15,0 -16,5 18 10 35 19 WNW 0,4 0
18.03.2019 07:00:00 -15,3 -17,3 26 14 36 20 NNW 0,3 0
18.03.2019 06:00:00 -15,5 -17,1 16 9 42 23 NW 11 0
18.03.2019 05:00:00 -15,3 -17,1 20 11 50 27 WNW 4,0 0
18.03.2019 04:00:00 -15,7 -17,3 21 12 45 24 W 7 0
18.03.2019 03:00:00 -15,2 -17,2 29 15 54 29 NNW - 0
18.03.2019 02:00:00 -14,5 -16,2 24 13 53 29 W 0,1 0
18.03.2019 01:00:00 -13,8 -15,5 27 14 58 32 NW 0,1 0
18.03.2019 00:00:00 -13,3 -15,0 33 18 71 38 W 0,1 0
17.03.2019 23:00:00 -12,9 -14,8 35 19 66 36 NNW - 0
17.03.2019 22:00:00 -12,2 -13,8 28 15 59 32 WNW 2,1 0
17.03.2019 21:00:00 -11,0 -12,5 22 12 54 29 NNW 5 0
17.03.2019 20:00:00 -7,2 -8,0 5 3 23 12 WSW 0,4 0
17.03.2019 19:00:00 -6,2 -7,3 10 5 21 11 SE 0,1 0
17.03.2019 18:00:00 -5,9 -7,4 16 8 22 12 SE 61 0
17.03.2019 17:00:00 -4,0 -8,1 10 5 38 21 ESE 74 5
17.03.2019 16:00:00 -2,0 -9,9 18 10 50 27 SSW 74 54
17.03.2019 15:00:00 -2,2 -12,3 35 19 56 31 S 71 60
17.03.2019 14:00:00 -1,6 -14,2 27 14 63 34 S 75 60
17.03.2019 13:00:00 -1,1 -14,7 37 20 79 42 SSW 75 60
17.03.2019 12:00:00 -1,7 -16,5 44 24 76 41 SSW 75 60
17.03.2019 11:00:00 -1,6 -17,0 32 18 74 40 ESE 8 60
17.03.2019 10:00:00 -1,1 -18,6 31 17 72 39 SE 16 60
17.03.2019 09:00:00 -0,6 -21,4 35 19 76 41 SW 7 60
17.03.2019 08:00:00 -1,1 -20,5 40 22 79 43 SE 12 27
17.03.2019 07:00:00 -1,3 -21,1 36 20 67 36 S 75 7
17.03.2019 06:00:00 -1,2 -21,8 51 27 77 42 SW 75 0
17.03.2019 05:00:00 -1,3 -20,8 51 27 77 42 SW 75 0
17.03.2019 04:00:00 -1,6 -20,3 55 30 84 45 SW 75 0
17.03.2019 03:00:00 -1,2 -22,5 60 33 84 46 WSW 66 0
17.03.2019 02:00:00 -1,6 -19,7 53 29 87 47 WSW 67 0
17.03.2019 01:00:00 -1,7 -18,6 58 31 96 52 WSW 51 0
17.03.2019 00:00:00 -1,8 -18,3 58 31 103 56 WSW 75 0
16.03.2019 23:00:00 -2,0 -17,4 71 38 97 52 WSW 2,4 0
16.03.2019 22:00:00 -2,3 -19,0 69 37 93 50 WSW 26 0
16.03.2019 21:00:00 -2,9 -19,2 63 34 102 55 WSW 11 0
16.03.2019 20:00:00 -3,8 -15,8 59 32 95 51 WSW 10 0
16.03.2019 19:00:00 -4,7 -16,2 68 37 96 52 WSW 4,0 37
16.03.2019 18:00:00 -5,6 -14,5 58 31 74 40 WSW 3,6 38
16.03.2019 17:00:00 -5,7 -13,6 45 24 74 40 WSW 42 60
16.03.2019 16:00:00 -5,6 -13,6 53 29 79 42 WSW 39 60
16.03.2019 15:00:00 -6,3 -13,1 54 29 85 46 WSW 34 49
16.03.2019 14:00:00 -7,4 -11,1 50 27 93 50 WSW 28 60
16.03.2019 13:00:00 -7,2 -9,6 48 26 90 48 WSW 10 60
16.03.2019 12:00:00 -7,3 -9,0 38 20 67 36 WSW 7 60
16.03.2019 11:00:00 -6,9 -8,1 31 17 66 36 W 0,9 60
16.03.2019 10:00:00 -6,7 -7,8 41 22 72 39 W 24 60
16.03.2019 09:00:00 -6,8 -7,8 45 25 73 39 WSW 1,8 13
16.03.2019 08:00:00 -7,0 -7,8 32 17 71 38 W 0,1 0
16.03.2019 07:00:00 -7,0 -7,5 36 20 74 40 W 0,1 0
16.03.2019 06:00:00 -7,0 -7,6 40 22 88 48 W 3,0 0
16.03.2019 05:00:00 -6,9 -7,5 39 21 77 42 WSW 3,5 0
16.03.2019 04:00:00 -6,7 -7,3 44 24 84 45 WSW 3,4 0
16.03.2019 03:00:00 -6,5 -7,1 48 26 92 50 WSW 3,2 0
16.03.2019 02:00:00 -6,4 -7,1 49 26 93 50 W 3,0 0
16.03.2019 01:00:00 -6,3 -7,0 44 24 96 52 WNW 2,5 0
16.03.2019 00:00:00 -6,1 -6,8 45 25 111 60 W 2,2 0
15.03.2019 23:00:00 -5,9 -6,6 42 23 89 48 WNW 1,9 0
15.03.2019 22:00:00 -5,8 -6,5 43 23 90 49 WNW 1,5 0
15.03.2019 21:00:00 -5,7 -6,5 43 23 88 47 WNW 1,3 0
15.03.2019 20:00:00 -5,7 -6,5 50 27 98 53 NW 1,2 0
15.03.2019 19:00:00 -5,7 -6,5 46 25 89 48 W 0,9 0
15.03.2019 18:00:00 -5,8 -6,5 46 25 85 46 WNW - 0
15.03.2019 17:00:00 -5,6 -6,3 48 26 89 48 WNW - 0
15.03.2019 16:00:00 -5,6 -6,3 48 26 90 49 WNW - 0
15.03.2019 15:00:00 -6,2 -7,0 49 27 99 53 W - 0
15.03.2019 14:00:00 -6,4 -7,2 45 24 94 51 WNW - 0
15.03.2019 13:00:00 -6,7 -7,5 46 25 106 57 WNW - 0
15.03.2019 12:00:00 -6,8 -7,7 46 25 84 45 WNW - 0
15.03.2019 11:00:00 -7,2 -8,1 49 26 93 50 WNW - 0
15.03.2019 10:00:00 -8,1 -9,1 49 27 97 53 W - 0
15.03.2019 09:00:00 -10,1 -11,1 39 21 69 37 W - 0
15.03.2019 08:00:00 -10,8 -11,6 41 22 68 37 NNW - 0
15.03.2019 07:00:00 -10,1 -11,0 31 17 76 41 WNW 0,7 0
15.03.2019 06:00:00 -10,6 -11,7 39 21 62 34 NW - 0
15.03.2019 05:00:00 -11,5 -12,7 30 16 51 28 NNW 1,8 0
15.03.2019 04:00:00 -11,8 -13,2 35 19 59 32 NW 4,9 0
15.03.2019 03:00:00 -11,4 -12,7 27 15 53 29 NNW 8 0
15.03.2019 02:00:00 -10,8 -12,1 25 13 67 36 NNW 12 0
15.03.2019 01:00:00 -11,1 -12,5 35 19 62 33 NNW 14 0
15.03.2019 00:00:00 -11,0 -12,4 32 17 65 35 NNW 12 0
14.03.2019 23:00:00 -9,9 -11,1 36 19 88 47 NNW 10 0
14.03.2019 22:00:00 -9,2 -10,5 47 26 95 51 NW 7 0
14.03.2019 21:00:00 -9,3 -10,7 56 30 96 52 NNW 7 0
14.03.2019 20:00:00 -9,7 -11,2 54 29 84 45 NW - 0
14.03.2019 19:00:00 -10,2 -11,4 48 26 105 57 NW - 0
14.03.2019 18:00:00 -10,9 -11,0 53 29 112 61 WSW - 0
14.03.2019 17:00:00 -11,3 -11,3 68 37 116 63 WSW - 0
14.03.2019 16:00:00 -11,7 -11,7 70 38 107 58 WSW - 0
14.03.2019 15:00:00 -12,0 -12,0 64 35 108 58 WSW 0,8 0
14.03.2019 14:00:00 -12,4 -12,4 64 35 106 58 WSW 0,1 0
14.03.2019 13:00:00 -13,0 -13,0 71 39 116 63 WSW 4,5 0
14.03.2019 12:00:00 -13,6 -13,6 60 33 90 49 WSW 0,1 0
14.03.2019 11:00:00 -13,4 -13,4 45 24 74 40 WSW 7 3
14.03.2019 10:00:00 -13,5 -13,5 22 12 63 34 WNW 0,2 0
14.03.2019 09:00:00 -13,9 -14,3 29 15 70 38 W - 0
14.03.2019 08:00:00 -13,9 -15,1 31 17 64 34 NW - 0
14.03.2019 07:00:00 -13,7 -15,2 31 17 64 35 NW - 0
14.03.2019 06:00:00 -13,6 -13,6 36 19 58 31 NW 0,1 0
14.03.2019 05:00:00 -13,5 -13,5 34 19 56 30 NW - 0
14.03.2019 04:00:00 -13,4 -13,4 39 21 68 37 NW - 0
14.03.2019 03:00:00 -13,5 -13,5 40 22 65 35 NW - 0
14.03.2019 02:00:00 -13,2 -13,2 34 19 65 35 NW - 0
14.03.2019 01:00:00 -13,1 -13,1 46 25 70 38 NNW - 0
14.03.2019 00:00:00 -13,3 -13,3 39 21 76 41 NNW 2,9 0
13.03.2019 23:00:00 -13,6 -14,0 33 18 72 39 W 0,1 0
13.03.2019 22:00:00 -14,1 -14,9 40 21 76 41 WSW 0,2 0
13.03.2019 21:00:00 -14,3 -15,3 33 18 71 38 W 0,1 0
13.03.2019 20:00:00 -14,5 -15,6 35 19 63 34 WSW 0,2 0
13.03.2019 19:00:00 -14,5 -15,6 29 16 70 38 WSW 0,2 0
13.03.2019 18:00:00 -14,6 -15,9 29 16 66 36 NW 0,2 34
13.03.2019 17:00:00 -14,6 -16,0 28 15 76 41 W 0,4 18
13.03.2019 16:00:00 -13,7 -15,0 25 13 64 34 NW 0,1 5
13.03.2019 15:00:00 -14,0 -15,4 34 18 75 40 WSW 0,2 8
13.03.2019 14:00:00 -13,7 -15,2 34 19 76 41 W 0,1 1
13.03.2019 13:00:00 -13,8 -15,5 34 18 80 43 WNW 0,1 1
13.03.2019 12:00:00 -13,1 -14,4 14 8 48 26 NW 0,1 2
13.03.2019 11:00:00 -13,3 -15,1 27 15 53 29 WNW 0,1 15
13.03.2019 10:00:00 -13,1 -14,8 24 13 57 31 NW 0,1 15
13.03.2019 09:00:00 -13,4 -15,0 39 21 68 37 W 0,2 1
13.03.2019 08:00:00 -13,2 -14,8 35 19 65 35 W 0,1 0
13.03.2019 07:00:00 -12,9 -14,3 34 18 74 40 W 0,1 0
13.03.2019 06:00:00 -12,4 -13,9 44 24 85 46 W 0,1 0
13.03.2019 05:00:00 -10,6 -12,0 37 20 86 47 W 0,1 0
13.03.2019 04:00:00 -9,0 -9,9 25 14 69 37 WSW 0,1 0
13.03.2019 03:00:00 -7,6 -10,7 43 23 78 42 WSW 2,0 0

tt = Température de l'air
td = dewpoint
ff = Vitesse du vent
fx = gusts
dd = Direction du vent
vv = visibility
sd = Ensoleillement

stations d'obs. à proximité